createdAt,value
2023-04-01T00:01:50.852Z,0.95
2023-04-01T00:04:42.693Z,0.95
2023-04-01T00:07:34.433Z,0.93
2023-04-01T00:10:25.617Z,1.02
2023-04-01T00:13:17.551Z,1.22
2023-04-01T00:16:19.852Z,1.10
2023-04-01T00:19:02.767Z,1.00
2023-04-01T00:21:55.662Z,0.85
2023-04-01T00:24:47.963Z,0.80
2023-04-01T00:27:39.367Z,1.35
2023-04-01T00:30:31.037Z,0.80
2023-04-01T00:33:22.655Z,0.72
2023-04-01T00:36:16.073Z,0.80
2023-04-01T00:39:07.315Z,1.10
2023-04-01T00:41:59.309Z,1.10
2023-04-01T00:44:54.367Z,1.02
2023-04-01T00:47:46.106Z,0.93
2023-04-01T00:50:39.478Z,1.07
2023-04-01T00:53:32.809Z,0.85
2023-04-01T00:59:09.662Z,1.00
2023-04-01T01:02:01.281Z,1.20
2023-04-01T01:04:53.061Z,0.80
2023-04-01T01:07:47.572Z,0.85
2023-04-01T01:10:41.153Z,1.17
2023-04-01T01:13:35.598Z,0.80
2023-04-01T01:19:19.812Z,1.00
2023-04-01T01:22:22.846Z,0.93
2023-04-01T01:25:21.616Z,1.02
2023-04-01T01:28:31.330Z,1.07
2023-04-01T01:31:26.018Z,1.00
2023-04-01T01:34:23.150Z,0.98
2023-04-01T01:37:16.694Z,1.05
2023-04-01T01:40:12.926Z,1.20
2023-04-01T01:43:07.354Z,0.85
2023-04-01T01:46:01.730Z,0.88
2023-04-01T01:48:56.413Z,1.00
2023-04-01T01:51:49.235Z,1.25
2023-04-01T01:54:52.501Z,0.90
2023-04-01T01:57:47.324Z,0.85
2023-04-01T02:00:41.644Z,0.98
2023-04-01T02:03:36.333Z,0.88
2023-04-01T02:06:30.819Z,0.85
2023-04-01T02:09:23.096Z,1.10
2023-04-01T02:12:17.997Z,0.82
2023-04-01T02:15:12.311Z,1.00
2023-04-01T02:18:04.922Z,1.30
2023-04-01T02:20:57.462Z,1.30
2023-04-01T02:23:49.381Z,0.80
2023-04-01T02:26:41.631Z,0.90
2023-04-01T02:29:33.803Z,0.80
2023-04-01T02:32:25.933Z,0.82
2023-04-01T02:35:20.129Z,0.85
2023-04-01T02:38:15.996Z,0.98
2023-04-01T02:41:08.001Z,1.00
2023-04-01T02:44:00.445Z,0.75
2023-04-01T02:46:51.754Z,0.78
2023-04-01T02:49:43.982Z,0.70
2023-04-01T02:52:35.352Z,0.95
2023-04-01T02:55:26.643Z,1.02
2023-04-01T02:58:18.066Z,0.70
2023-04-01T03:01:09.550Z,0.98
2023-04-01T03:04:00.887Z,1.05
2023-04-01T03:06:52.553Z,0.98
2023-04-01T03:09:43.950Z,1.00
2023-04-01T03:12:35.493Z,1.10
2023-04-01T03:15:26.823Z,0.90
2023-04-01T03:18:18.913Z,1.30
2023-04-01T03:21:18.476Z,1.30
2023-04-01T03:24:10.390Z,1.40
2023-04-01T03:27:01.976Z,1.20
2023-04-01T03:29:54.150Z,1.47
2023-04-01T03:32:45.536Z,1.12
2023-04-01T03:35:37.120Z,1.12
2023-04-01T03:38:28.807Z,0.93
2023-04-01T03:41:20.775Z,1.12
2023-04-01T03:44:12.590Z,1.00
2023-04-01T03:49:42.497Z,1.05
2023-04-01T03:52:34.041Z,0.98
2023-04-01T03:55:25.503Z,1.25
2023-04-01T03:58:16.823Z,1.02
2023-04-01T04:01:16.508Z,1.00
2023-04-01T04:04:08.515Z,1.20
2023-04-01T04:07:00.055Z,1.05
2023-04-01T04:09:53.057Z,1.10
2023-04-01T04:12:44.457Z,1.47
2023-04-01T04:15:35.523Z,1.15
2023-04-01T04:18:26.995Z,1.00
2023-04-01T04:21:18.726Z,0.90
2023-04-01T04:24:10.897Z,0.82
2023-04-01T04:27:18.736Z,1.02
2023-04-01T04:30:13.402Z,0.82
2023-04-01T04:33:04.970Z,0.90
2023-04-01T04:38:38.746Z,0.93
2023-04-01T04:41:30.430Z,1.02
2023-04-01T04:44:21.728Z,1.02
2023-04-01T04:47:13.147Z,1.35
2023-04-01T04:50:04.748Z,1.30
2023-04-01T04:52:56.309Z,1.27
2023-04-01T04:55:48.969Z,1.00
2023-04-01T04:58:51.142Z,1.12
2023-04-01T05:01:44.487Z,1.20
2023-04-01T05:04:40.026Z,1.32
2023-04-01T05:07:33.355Z,1.07
2023-04-01T05:10:25.123Z,1.50
2023-04-01T05:13:16.375Z,1.02
2023-04-01T05:16:12.763Z,1.00
2023-04-01T05:19:03.974Z,1.07
2023-04-01T05:21:56.368Z,1.30
2023-04-01T05:24:48.031Z,1.80
2023-04-01T05:27:39.927Z,1.20
2023-04-01T05:30:31.650Z,1.10
2023-04-01T05:33:24.264Z,1.22
2023-04-01T05:36:18.990Z,1.40
2023-04-01T05:39:10.384Z,1.37
2023-04-01T05:42:02.388Z,1.25
2023-04-01T05:44:53.822Z,1.15
2023-04-01T05:48:03.785Z,1.22
2023-04-01T05:50:56.425Z,1.10
2023-04-01T05:53:47.756Z,1.50
2023-04-01T05:56:39.146Z,2.00
2023-04-01T05:59:32.324Z,1.15
2023-04-01T06:05:12.558Z,1.20
2023-04-01T06:08:09.881Z,1.30
2023-04-01T06:11:08.242Z,1.40
2023-04-01T06:14:08.264Z,1.55
2023-04-01T06:17:08.506Z,1.32
2023-04-01T06:20:03.802Z,1.00
2023-04-01T06:23:22.705Z,1.37
2023-04-01T06:26:21.785Z,1.25
2023-04-01T06:29:31.457Z,1.10
2023-04-01T06:32:46.709Z,1.00
2023-04-01T06:35:55.187Z,1.10
2023-04-01T06:42:06.912Z,1.50
2023-04-01T06:45:06.509Z,1.90
2023-04-01T06:48:26.290Z,2.02
2023-04-01T06:51:41.394Z,1.95
2023-04-01T06:54:43.163Z,1.32
2023-04-01T06:57:55.503Z,1.60
2023-04-01T07:06:16.497Z,1.20
2023-04-01T07:09:13.326Z,1.60
2023-04-01T07:12:26.341Z,1.37
2023-04-01T07:15:28.428Z,1.30
2023-04-01T07:18:23.559Z,1.32
2023-04-01T07:21:20.433Z,1.40
2023-04-01T07:24:18.499Z,1.17
2023-04-01T07:30:06.731Z,1.20
2023-04-01T07:33:01.270Z,1.20
2023-04-01T07:35:56.453Z,1.37
2023-04-01T07:41:35.225Z,1.52
2023-04-01T07:47:35.840Z,1.20
2023-04-01T07:50:30.938Z,1.40
2023-04-01T07:53:26.610Z,1.77
2023-04-01T07:56:22.025Z,1.50
2023-04-01T07:59:19.465Z,1.85
2023-04-01T08:02:19.688Z,1.50
2023-04-01T08:08:01.560Z,1.60
2023-04-01T08:11:00.243Z,1.40
2023-04-01T08:14:13.617Z,1.42
2023-04-01T08:17:27.721Z,1.30
2023-04-01T08:20:28.238Z,2.05
2023-04-01T08:23:23.088Z,2.12
2023-04-01T08:26:18.367Z,1.15
2023-04-01T08:29:13.423Z,1.62
2023-04-01T08:32:08.082Z,1.15
2023-04-01T08:35:03.257Z,1.50
2023-04-01T08:37:58.794Z,1.10
2023-04-01T08:41:02.691Z,1.17
2023-04-01T08:44:16.636Z,0.72
2023-04-01T08:47:38.569Z,0.80
2023-04-01T08:50:52.553Z,0.72
2023-04-01T08:54:14.574Z,1.10
2023-04-01T08:57:09.229Z,1.25
2023-04-01T09:00:08.240Z,0.85
2023-04-01T09:06:35.925Z,1.30
2023-04-01T09:09:45.403Z,1.60
2023-04-01T09:15:54.823Z,1.35
2023-04-01T09:19:16.775Z,1.40
2023-04-01T09:22:29.933Z,0.95
2023-04-01T09:28:38.303Z,1.00
2023-04-01T09:31:55.325Z,0.82
2023-04-01T09:35:12.567Z,1.00
2023-04-01T09:38:08.802Z,1.12
2023-04-01T09:41:02.458Z,1.00
2023-04-01T09:46:54.023Z,0.50
2023-04-01T09:49:54.891Z,0.60
2023-04-01T09:52:49.988Z,0.40
2023-04-01T09:56:45.282Z,0.40
2023-04-01T10:00:14.178Z,0.50
2023-04-01T10:03:43.014Z,0.78
2023-04-01T10:07:12.447Z,0.70
2023-04-01T10:10:35.297Z,0.82
2023-04-01T10:14:03.950Z,0.50
2023-04-01T10:17:42.231Z,0.50
2023-04-01T10:20:58.866Z,0.50
2023-04-01T10:24:28.431Z,0.70
2023-04-01T10:27:31.526Z,0.50
2023-04-01T10:31:08.401Z,0.95
2023-04-01T10:34:43.178Z,0.60
2023-04-01T10:41:13.779Z,0.70
2023-04-01T10:44:59.125Z,0.53
2023-04-01T10:48:22.472Z,0.60
2023-04-01T10:51:43.345Z,0.72
2023-04-01T10:54:50.110Z,0.88
2023-04-01T10:58:16.417Z,0.70
2023-04-01T11:01:44.160Z,0.68
2023-04-01T11:05:41.452Z,0.50
2023-04-01T11:09:13.239Z,0.53
2023-04-01T11:12:52.465Z,0.80
2023-04-01T11:16:26.844Z,0.53
2023-04-01T11:19:53.784Z,0.50
2023-04-01T11:23:13.178Z,0.40
2023-04-01T11:26:10.454Z,0.35
2023-04-01T11:32:54.681Z,0.50
2023-04-01T11:36:03.872Z,0.55
2023-04-01T11:39:08.162Z,0.40
2023-04-01T11:42:22.767Z,0.60
2023-04-01T11:45:39.093Z,0.50
2023-04-01T11:48:56.629Z,0.50
2023-04-01T11:52:15.193Z,0.60
2023-04-01T11:55:12.619Z,0.50
2023-04-01T11:58:33.073Z,0.53
2023-04-01T12:01:34.768Z,0.20
2023-04-01T12:04:54.341Z,0.40
2023-04-01T12:10:57.639Z,0.30
2023-04-01T12:13:53.184Z,0.15
2023-04-01T12:16:54.590Z,0.90
2023-04-01T12:19:49.813Z,0.20
2023-04-01T12:22:48.548Z,0.30
2023-04-01T12:29:07.270Z,0.30
2023-04-01T12:32:03.531Z,0.30
2023-04-01T12:35:15.460Z,0.40
2023-04-01T12:41:12.137Z,0.30
2023-04-01T12:47:36.652Z,0.30
2023-04-01T12:50:38.555Z,0.30
2023-04-01T12:53:41.416Z,0.30
2023-04-01T12:56:37.166Z,0.30
2023-04-01T12:59:40.046Z,0.50
2023-04-01T13:02:41.355Z,0.50
2023-04-01T13:05:45.696Z,0.50
2023-04-01T13:08:42.639Z,0.47
2023-04-01T13:11:40.625Z,0.40
2023-04-01T13:14:44.544Z,0.35
2023-04-01T13:17:38.827Z,0.62
2023-04-01T13:20:40.887Z,0.28
2023-04-01T13:23:38.994Z,0.50
2023-04-01T13:29:26.294Z,0.23
2023-04-01T13:32:43.196Z,0.37
2023-04-01T13:35:30.221Z,0.28
2023-04-01T13:38:47.496Z,0.90
2023-04-01T13:41:48.979Z,0.40
2023-04-01T13:44:44.054Z,0.42
2023-04-01T13:48:04.676Z,0.20
2023-04-01T13:54:25.656Z,0.33
2023-04-01T13:57:26.035Z,0.30
2023-04-01T14:03:49.191Z,0.20
2023-04-01T14:06:45.942Z,0.10
2023-04-01T14:10:16.502Z,0.00
2023-04-01T14:13:11.757Z,0.28
2023-04-01T14:16:31.196Z,0.30
2023-04-01T14:19:33.854Z,0.47
2023-04-01T14:22:29.952Z,0.50
2023-04-01T14:25:37.262Z,0.40
2023-04-01T14:28:33.539Z,0.50
2023-04-01T14:31:31.793Z,0.20
2023-04-01T14:34:33.416Z,0.20
2023-04-01T14:37:40.107Z,0.20
2023-04-01T14:40:36.251Z,0.50
2023-04-01T14:50:06.977Z,0.30
2023-04-01T14:53:05.824Z,0.20
2023-04-01T14:58:51.499Z,0.20
2023-04-01T15:04:42.578Z,0.10
2023-04-01T15:11:05.023Z,0.00
2023-04-01T15:14:10.857Z,0.10
2023-04-01T15:17:10.717Z,0.20
2023-04-01T15:20:27.555Z,0.17
2023-04-01T15:23:26.710Z,0.08
2023-04-01T15:26:24.743Z,0.30
2023-04-01T15:29:28.206Z,0.42
2023-04-01T15:32:24.188Z,0.33
2023-04-01T15:35:24.405Z,0.50
2023-04-01T15:38:21.216Z,1.60
2023-04-01T15:41:18.755Z,0.82
2023-04-01T15:44:53.590Z,1.40
2023-04-01T15:50:39.750Z,0.60
2023-04-01T15:53:40.774Z,0.50
2023-04-01T15:56:52.219Z,0.70
2023-04-01T16:00:10.801Z,0.60
2023-04-01T16:06:49.949Z,1.02
2023-04-01T16:10:09.725Z,0.57
2023-04-01T16:13:08.236Z,1.77
2023-04-01T16:18:56.538Z,0.70
2023-04-01T16:24:35.001Z,0.57
2023-04-01T16:27:31.824Z,0.80
2023-04-01T16:30:39.712Z,0.70
2023-04-01T16:33:36.548Z,0.40
2023-04-01T16:36:31.736Z,0.30
2023-04-01T16:42:18.008Z,0.20
2023-04-01T16:45:20.336Z,0.20
2023-04-01T16:48:17.526Z,0.10
2023-04-01T16:51:14.017Z,0.23
2023-04-01T16:54:09.338Z,0.08
2023-04-01T16:57:11.190Z,0.70
2023-04-01T17:00:06.891Z,0.30
2023-04-01T17:05:53.274Z,0.03
2023-04-01T17:11:49.752Z,0.20
2023-04-01T17:14:44.745Z,0.20
2023-04-01T17:17:48.200Z,0.50
2023-04-01T17:20:44.449Z,0.23
2023-04-01T17:23:38.640Z,0.30
2023-04-01T17:26:36.056Z,0.33
2023-04-01T17:29:30.518Z,0.20
2023-04-01T17:32:24.602Z,0.40
2023-04-01T17:35:19.730Z,0.40
2023-04-01T17:38:18.152Z,0.65
2023-04-01T17:41:12.629Z,0.40
2023-04-01T17:44:12.197Z,0.25
2023-04-01T17:47:20.851Z,0.93
2023-04-01T17:50:26.226Z,0.30
2023-04-01T17:53:26.766Z,0.60
2023-04-01T17:56:45.681Z,0.57
2023-04-01T17:59:40.480Z,0.47
2023-04-01T18:02:36.000Z,0.60
2023-04-01T18:05:44.193Z,0.30
2023-04-01T18:08:53.036Z,0.40
2023-04-01T18:11:48.799Z,0.55
2023-04-01T18:17:43.912Z,0.33
2023-04-01T18:20:41.439Z,0.30
2023-04-01T18:23:35.578Z,0.35
2023-04-01T18:26:30.083Z,0.50
2023-04-01T18:29:28.812Z,0.50
2023-04-01T18:32:28.412Z,0.47
2023-04-01T18:35:26.090Z,0.20
2023-04-01T18:38:20.250Z,0.70
2023-04-01T18:41:20.190Z,0.30
2023-04-01T18:44:27.415Z,0.57
2023-04-01T18:47:26.980Z,0.50
2023-04-01T18:50:23.502Z,0.28
2023-04-01T18:53:20.739Z,0.20
2023-04-01T18:56:14.792Z,1.17
2023-04-01T18:59:10.595Z,0.70
2023-04-01T19:04:51.207Z,1.15
2023-04-01T19:07:51.150Z,1.10
2023-04-01T19:10:44.789Z,1.35
2023-04-01T19:13:40.930Z,1.10
2023-04-01T19:16:40.226Z,1.60
2023-04-01T19:19:42.075Z,2.67
2023-04-01T19:22:51.384Z,1.82
2023-04-01T19:25:45.035Z,1.37
2023-04-01T19:28:42.848Z,2.92
2023-04-01T19:31:43.757Z,1.35
2023-04-01T19:34:40.816Z,1.40
2023-04-01T19:37:39.467Z,1.40
2023-04-01T19:43:33.435Z,2.12
2023-04-01T19:46:28.415Z,2.42
2023-04-01T19:49:31.398Z,1.52
2023-04-01T19:52:26.724Z,1.22
2023-04-01T19:55:23.891Z,1.62
2023-04-01T19:58:19.523Z,1.83
2023-04-01T20:01:14.097Z,1.40
2023-04-01T20:04:09.153Z,0.80
2023-04-01T20:07:04.092Z,0.40
2023-04-01T20:09:58.384Z,0.60
2023-04-01T20:12:52.315Z,0.40
2023-04-01T20:15:47.509Z,0.53
2023-04-01T20:18:46.520Z,0.70
2023-04-01T20:21:41.907Z,0.42
2023-04-01T20:27:19.584Z,0.50
2023-04-01T20:30:29.325Z,0.33
2023-04-01T20:36:19.179Z,0.40
2023-04-01T20:39:32.991Z,0.45
2023-04-01T20:42:34.499Z,0.10
2023-04-01T20:45:35.947Z,0.15
2023-04-01T20:49:14.841Z,0.60
2023-04-01T20:52:12.706Z,0.40
2023-04-01T20:55:38.122Z,1.00
2023-04-01T21:01:18.126Z,2.08
2023-04-01T21:07:18.485Z,2.20
2023-04-01T21:10:22.407Z,1.95
2023-04-01T21:13:49.508Z,2.62
2023-04-01T21:16:48.492Z,2.33
2023-04-01T21:20:05.188Z,1.82
2023-04-01T21:26:24.265Z,1.65
2023-04-01T21:32:35.570Z,0.40
2023-04-01T21:35:33.071Z,0.50
2023-04-01T21:38:52.673Z,0.50
2023-04-01T21:41:56.154Z,0.70
2023-04-01T21:44:59.782Z,0.80
2023-04-01T21:48:17.516Z,0.80
2023-04-01T21:51:52.668Z,0.60
2023-04-01T21:55:11.282Z,1.10
2023-04-01T21:58:43.235Z,0.80
2023-04-01T22:02:00.330Z,0.90
2023-04-01T22:05:00.640Z,1.00
2023-04-01T22:07:57.001Z,1.10
2023-04-01T22:10:51.780Z,1.50
2023-04-01T22:13:46.370Z,0.82
2023-04-01T22:16:41.622Z,1.07
2023-04-01T22:19:37.549Z,0.80
2023-04-01T22:25:12.756Z,0.85
2023-04-01T22:28:07.677Z,0.82
2023-04-01T22:31:01.769Z,1.42
2023-04-01T22:33:56.364Z,1.07
2023-04-01T22:39:59.356Z,0.78
2023-04-01T22:42:53.512Z,0.70
2023-04-01T22:46:04.515Z,0.98
2023-04-01T22:48:59.151Z,0.93
2023-04-01T22:51:54.101Z,0.80
2023-04-01T22:54:48.315Z,1.50
2023-04-01T22:57:44.944Z,1.00
2023-04-01T23:00:41.977Z,1.07
2023-04-01T23:03:35.569Z,1.10
2023-04-01T23:06:33.047Z,1.60
2023-04-01T23:09:25.770Z,1.27
2023-04-01T23:12:23.293Z,1.45
2023-04-01T23:15:17.712Z,1.30
2023-04-01T23:18:17.785Z,1.12
2023-04-01T23:21:17.284Z,1.45
2023-04-01T23:24:13.199Z,1.50
2023-04-01T23:27:07.813Z,1.37
2023-04-01T23:29:59.170Z,1.50
2023-04-01T23:32:50.701Z,1.60
2023-04-01T23:35:54.616Z,1.57
2023-04-01T23:38:48.230Z,1.25
2023-04-01T23:41:39.853Z,1.80
2023-04-01T23:44:32.592Z,1.85
2023-04-01T23:47:26.485Z,1.70
2023-04-01T23:53:05.071Z,2.30
2023-04-01T23:55:56.689Z,2.30
2023-04-01T23:58:52.287Z,2.10
